YQA weather

Muskoka Airport
Muskoka, Ontario, Canada

Public forecast

Using degrees Celsius for public forecast. Weather courtesy of forecast.io.

Current aviation weather report (METAR) for Muskoka Airport

Retrieved 2019/10/19 20:00 UTC (45 minutes ago):

CYQA 192000Z AUTO 13006KT 100V180 9SM CLR 12/02 A2996 RMK SLP158

Aviation forecast (TAF) for Muskoka Airport

Retrieved 2019/10/19 20:00 UTC (45 minutes ago):

TAF CYQA 191938Z 1920/2002 16007KT P6SM FEW150 RMK FCST BASED ON AUTO OBS NXT FCST WILL BE ISSUED AT 201145Z